To NAV CANADA Home Page Login to a new session Search on AWWS site Disclaimer Vers la page française équivalente Tips FAQ What's new on the site To the Forecasts and Observations / NOTAM section To "File a Flight Plan" website Publications and other links Update of the User's profile FIC Telephone Numbers My Weather Data Folder Route Weather Data Regional Weather Data Local Weather Data To the Forecasts and Observations / NOTAM section
Request Generated 03/19/2019 at 23:05:53 UTC . Weather information available at that time is displayed.

METAR/TAF

MAYO/YT    

METAR CYMA 192300Z 21004KT 150V240 20SM BKN065TCU OVC140 13/M01 A2976 RMK TCU7AS1 SLP093 DENSITY ALT 2000FT=
METAR CYMA 192200Z 20009G20KT 160V240 20SM SCT065TCU BKN130 13/M02 A2976 RMK TCU4AC2 SLP095 DENSITY ALT 2100FT=
METAR CYMA 192100Z 23007G15KT 190V260 20SM SCT065 BKN150 12/M02 A2976 RMK CU4AC1 SLP094 DENSITY ALT 2000FT=

TAF CYMA 191738Z 1918/2006 20006KT P6SM FEW050 BKN210
RMK NXT FCST BY 200000Z=
Your time UTC time
Weather data provided by Environment Canada and NAV CANADA